sensor_id;sensor_type;location;lat;lon;timestamp;P1;durP1;ratioP1;P2;durP2;ratioP2
8564;SDS011;4320;51.498;6.556;2023-06-10T00:00:43;8.05;;;5.93;;
8564;SDS011;4320;51.498;6.556;2023-06-10T00:03:09;7.65;;;6.05;;
8564;SDS011;4320;51.498;6.556;2023-06-10T00:05:35;8.85;;;5.45;;
8564;SDS011;4320;51.498;6.556;2023-06-10T00:08:03;8.27;;;5.50;;
8564;SDS011;4320;51.498;6.556;2023-06-10T00:10:34;8.50;;;5.78;;
8564;SDS011;4320;51.498;6.556;2023-06-10T00:13:04;7.20;;;5.80;;
8564;SDS011;4320;51.498;6.556;2023-06-10T00:15:33;11.80;;;5.53;;
8564;SDS011;4320;51.498;6.556;2023-06-10T00:18:00;7.25;;;5.70;;
8564;SDS011;4320;51.498;6.556;2023-06-10T00:20:28;9.30;;;5.65;;
8564;SDS011;4320;51.498;6.556;2023-06-10T00:22:55;6.63;;;5.55;;
8564;SDS011;4320;51.498;6.556;2023-06-10T00:25:22;9.80;;;5.80;;
8564;SDS011;4320;51.498;6.556;2023-06-10T00:27:48;11.55;;;6.05;;
8564;SDS011;4320;51.498;6.556;2023-06-10T00:30:13;6.15;;;5.53;;
8564;SDS011;4320;51.498;6.556;2023-06-10T00:32:39;6.03;;;5.43;;
8564;SDS011;4320;51.498;6.556;2023-06-10T00:35:05;8.02;;;5.90;;
8564;SDS011;4320;51.498;6.556;2023-06-10T00:37:32;9.40;;;6.13;;
8564;SDS011;4320;51.498;6.556;2023-06-10T00:39:59;6.85;;;6.03;;
8564;SDS011;4320;51.498;6.556;2023-06-10T00:42:25;8.77;;;5.97;;
8564;SDS011;4320;51.498;6.556;2023-06-10T00:44:51;10.25;;;6.05;;
8564;SDS011;4320;51.498;6.556;2023-06-10T00:47:16;7.35;;;5.78;;
8564;SDS011;4320;51.498;6.556;2023-06-10T00:49:43;8.05;;;5.90;;
8564;SDS011;4320;51.498;6.556;2023-06-10T00:52:09;8.15;;;5.78;;
8564;SDS011;4320;51.498;6.556;2023-06-10T00:54:35;6.13;;;5.53;;
8564;SDS011;4320;51.498;6.556;2023-06-10T00:57:02;6.45;;;5.15;;
8564;SDS011;4320;51.498;6.556;2023-06-10T00:59:29;6.93;;;5.65;;
8564;SDS011;4320;51.498;6.556;2023-06-10T01:01:56;7.00;;;6.30;;
8564;SDS011;4320;51.498;6.556;2023-06-10T01:04:22;6.40;;;5.72;;
8564;SDS011;4320;51.498;6.556;2023-06-10T01:09:25;6.25;;;5.65;;
8564;SDS011;4320;51.498;6.556;2023-06-10T01:12:01;7.80;;;5.65;;
8564;SDS011;4320;51.498;6.556;2023-06-10T01:14:33;7.65;;;5.95;;
8564;SDS011;4320;51.498;6.556;2023-06-10T01:17:01;6.93;;;6.22;;
8564;SDS011;4320;51.498;6.556;2023-06-10T01:19:28;6.70;;;5.95;;
8564;SDS011;4320;51.498;6.556;2023-06-10T01:21:56;7.22;;;5.95;;
8564;SDS011;4320;51.498;6.556;2023-06-10T01:24:25;8.18;;;6.38;;
8564;SDS011;4320;51.498;6.556;2023-06-10T01:26:52;7.57;;;6.65;;
8564;SDS011;4320;51.498;6.556;2023-06-10T01:29:22;11.30;;;6.82;;
8564;SDS011;4320;51.498;6.556;2023-06-10T01:32:15;7.03;;;6.32;;
8564;SDS011;4320;51.498;6.556;2023-06-10T01:34:46;8.95;;;6.90;;
8564;SDS011;4320;51.498;6.556;2023-06-10T01:37:14;9.38;;;6.55;;
8564;SDS011;4320;51.498;6.556;2023-06-10T01:39:43;8.88;;;6.45;;
8564;SDS011;4320;51.498;6.556;2023-06-10T01:42:10;9.65;;;7.00;;
8564;SDS011;4320;51.498;6.556;2023-06-10T01:44:38;13.38;;;7.53;;
8564;SDS011;4320;51.498;6.556;2023-06-10T01:47:04;8.70;;;7.07;;
8564;SDS011;4320;51.498;6.556;2023-06-10T01:49:30;8.45;;;6.85;;
8564;SDS011;4320;51.498;6.556;2023-06-10T01:51:56;8.00;;;6.93;;
8564;SDS011;4320;51.498;6.556;2023-06-10T01:54:21;8.45;;;7.13;;
8564;SDS011;4320;51.498;6.556;2023-06-10T01:56:47;7.88;;;7.18;;
8564;SDS011;4320;51.498;6.556;2023-06-10T01:59:12;7.95;;;7.15;;
8564;SDS011;4320;51.498;6.556;2023-06-10T02:01:38;7.78;;;6.97;;
8564;SDS011;4320;51.498;6.556;2023-06-10T02:04:04;9.13;;;6.93;;
8564;SDS011;4320;51.498;6.556;2023-06-10T02:06:29;9.25;;;7.50;;
8564;SDS011;4320;51.498;6.556;2023-06-10T02:08:55;9.65;;;7.55;;
8564;SDS011;4320;51.498;6.556;2023-06-10T02:11:20;8.15;;;7.07;;
8564;SDS011;4320;51.498;6.556;2023-06-10T02:13:46;9.68;;;7.40;;
8564;SDS011;4320;51.498;6.556;2023-06-10T02:16:12;8.00;;;7.25;;
8564;SDS011;4320;51.498;6.556;2023-06-10T02:18:39;8.95;;;7.90;;
8564;SDS011;4320;51.498;6.556;2023-06-10T02:21:08;8.60;;;7.70;;
8564;SDS011;4320;51.498;6.556;2023-06-10T02:23:33;8.55;;;7.75;;
8564;SDS011;4320;51.498;6.556;2023-06-10T02:25:59;10.60;;;8.40;;
8564;SDS011;4320;51.498;6.556;2023-06-10T02:28:25;9.88;;;7.40;;
8564;SDS011;4320;51.498;6.556;2023-06-10T02:30:51;9.13;;;7.55;;
8564;SDS011;4320;51.498;6.556;2023-06-10T02:33:17;12.60;;;7.90;;
8564;SDS011;4320;51.498;6.556;2023-06-10T02:35:43;10.10;;;7.93;;
8564;SDS011;4320;51.498;6.556;2023-06-10T02:38:09;12.23;;;8.23;;
8564;SDS011;4320;51.498;6.556;2023-06-10T02:40:34;14.80;;;8.32;;
8564;SDS011;4320;51.498;6.556;2023-06-10T02:43:00;11.65;;;8.23;;
8564;SDS011;4320;51.498;6.556;2023-06-10T02:45:26;13.82;;;8.80;;
8564;SDS011;4320;51.498;6.556;2023-06-10T02:47:51;10.88;;;8.98;;
8564;SDS011;4320;51.498;6.556;2023-06-10T02:50:17;10.40;;;9.02;;
8564;SDS011;4320;51.498;6.556;2023-06-10T02:52:43;9.35;;;7.93;;
8564;SDS011;4320;51.498;6.556;2023-06-10T02:55:08;10.02;;;8.57;;
8564;SDS011;4320;51.498;6.556;2023-06-10T02:57:34;9.90;;;7.85;;
8564;SDS011;4320;51.498;6.556;2023-06-10T03:00:00;9.38;;;7.55;;
8564;SDS011;4320;51.498;6.556;2023-06-10T03:02:35;10.38;;;9.27;;
8564;SDS011;4320;51.498;6.556;2023-06-10T03:05:03;11.27;;;9.50;;
8564;SDS011;4320;51.498;6.556;2023-06-10T03:07:30;10.77;;;8.65;;
8564;SDS011;4320;51.498;6.556;2023-06-10T03:09:56;12.55;;;8.93;;
8564;SDS011;4320;51.498;6.556;2023-06-10T03:12:21;12.55;;;9.73;;
8564;SDS011;4320;51.498;6.556;2023-06-10T03:14:47;10.20;;;8.88;;
8564;SDS011;4320;51.498;6.556;2023-06-10T03:17:12;10.05;;;9.00;;
8564;SDS011;4320;51.498;6.556;2023-06-10T03:19:38;9.77;;;8.77;;
8564;SDS011;4320;51.498;6.556;2023-06-10T03:22:08;10.70;;;9.20;;
8564;SDS011;4320;51.498;6.556;2023-06-10T03:24:33;12.73;;;9.15;;
8564;SDS011;4320;51.498;6.556;2023-06-10T03:27:00;9.27;;;8.38;;
8564;SDS011;4320;51.498;6.556;2023-06-10T03:29:27;12.55;;;9.43;;
8564;SDS011;4320;51.498;6.556;2023-06-10T03:31:52;11.32;;;9.18;;
8564;SDS011;4320;51.498;6.556;2023-06-10T03:34:18;11.90;;;9.02;;
8564;SDS011;4320;51.498;6.556;2023-06-10T03:36:43;11.27;;;9.63;;
8564;SDS011;4320;51.498;6.556;2023-06-10T03:39:09;10.63;;;9.52;;
8564;SDS011;4320;51.498;6.556;2023-06-10T03:41:35;13.38;;;9.57;;
8564;SDS011;4320;51.498;6.556;2023-06-10T03:44:01;10.20;;;9.18;;
8564;SDS011;4320;51.498;6.556;2023-06-10T03:46:26;12.73;;;8.70;;
8564;SDS011;4320;51.498;6.556;2023-06-10T03:48:52;10.55;;;8.95;;
8564;SDS011;4320;51.498;6.556;2023-06-10T03:51:17;11.05;;;8.45;;
8564;SDS011;4320;51.498;6.556;2023-06-10T03:53:43;13.10;;;9.52;;
8564;SDS011;4320;51.498;6.556;2023-06-10T03:56:11;12.00;;;9.73;;
8564;SDS011;4320;51.498;6.556;2023-06-10T03:58:37;10.13;;;8.93;;
8564;SDS011;4320;51.498;6.556;2023-06-10T04:01:02;10.90;;;9.23;;
8564;SDS011;4320;51.498;6.556;2023-06-10T04:03:28;10.52;;;8.95;;
8564;SDS011;4320;51.498;6.556;2023-06-10T04:05:54;10.32;;;8.77;;
8564;SDS011;4320;51.498;6.556;2023-06-10T04:08:19;10.95;;;9.18;;
8564;SDS011;4320;51.498;6.556;2023-06-10T04:10:45;11.52;;;9.20;;
8564;SDS011;4320;51.498;6.556;2023-06-10T04:13:11;10.65;;;8.90;;
8564;SDS011;4320;51.498;6.556;2023-06-10T04:15:36;12.65;;;8.80;;
8564;SDS011;4320;51.498;6.556;2023-06-10T04:18:02;11.82;;;9.02;;
8564;SDS011;4320;51.498;6.556;2023-06-10T04:20:28;11.05;;;8.93;;
8564;SDS011;4320;51.498;6.556;2023-06-10T04:22:53;13.35;;;8.82;;
8564;SDS011;4320;51.498;6.556;2023-06-10T04:25:19;10.85;;;9.23;;
8564;SDS011;4320;51.498;6.556;2023-06-10T04:27:45;10.32;;;9.07;;
8564;SDS011;4320;51.498;6.556;2023-06-10T04:30:11;11.32;;;8.80;;
8564;SDS011;4320;51.498;6.556;2023-06-10T04:32:37;9.30;;;8.30;;
8564;SDS011;4320;51.498;6.556;2023-06-10T04:35:03;9.68;;;8.68;;
8564;SDS011;4320;51.498;6.556;2023-06-10T04:37:29;8.80;;;8.00;;
8564;SDS011;4320;51.498;6.556;2023-06-10T04:39:54;11.68;;;8.30;;
8564;SDS011;4320;51.498;6.556;2023-06-10T04:42:20;13.85;;;8.70;;
8564;SDS011;4320;51.498;6.556;2023-06-10T04:44:46;10.20;;;8.55;;
8564;SDS011;4320;51.498;6.556;2023-06-10T04:47:11;10.02;;;8.52;;
8564;SDS011;4320;51.498;6.556;2023-06-10T04:49:37;9.95;;;8.05;;
8564;SDS011;4320;51.498;6.556;2023-06-10T04:52:02;11.15;;;7.55;;
8564;SDS011;4320;51.498;6.556;2023-06-10T04:54:29;8.90;;;7.53;;
8564;SDS011;4320;51.498;6.556;2023-06-10T04:56:55;8.35;;;7.55;;
8564;SDS011;4320;51.498;6.556;2023-06-10T04:59:21;8.35;;;7.38;;
8564;SDS011;4320;51.498;6.556;2023-06-10T05:01:46;9.32;;;7.65;;
8564;SDS011;4320;51.498;6.556;2023-06-10T05:04:12;9.07;;;7.93;;
8564;SDS011;4320;51.498;6.556;2023-06-10T05:06:37;10.23;;;8.38;;
8564;SDS011;4320;51.498;6.556;2023-06-10T05:09:03;9.20;;;7.88;;
8564;SDS011;4320;51.498;6.556;2023-06-10T05:11:29;9.30;;;7.88;;
8564;SDS011;4320;51.498;6.556;2023-06-10T05:13:54;9.65;;;7.40;;
8564;SDS011;4320;51.498;6.556;2023-06-10T05:16:20;8.80;;;7.68;;
8564;SDS011;4320;51.498;6.556;2023-06-10T05:18:46;8.30;;;6.78;;
8564;SDS011;4320;51.498;6.556;2023-06-10T05:21:14;8.38;;;7.32;;
8564;SDS011;4320;51.498;6.556;2023-06-10T05:23:40;9.98;;;7.82;;
8564;SDS011;4320;51.498;6.556;2023-06-10T05:26:06;10.27;;;7.57;;
8564;SDS011;4320;51.498;6.556;2023-06-10T05:28:31;8.45;;;7.40;;
8564;SDS011;4320;51.498;6.556;2023-06-10T05:30:57;7.82;;;6.68;;
8564;SDS011;4320;51.498;6.556;2023-06-10T05:33:23;9.45;;;6.53;;
8564;SDS011;4320;51.498;6.556;2023-06-10T05:35:48;8.10;;;6.53;;
8564;SDS011;4320;51.498;6.556;2023-06-10T05:38:14;11.10;;;6.97;;
8564;SDS011;4320;51.498;6.556;2023-06-10T05:40:39;9.40;;;6.97;;
8564;SDS011;4320;51.498;6.556;2023-06-10T05:43:05;9.10;;;7.25;;
8564;SDS011;4320;51.498;6.556;2023-06-10T05:45:31;9.82;;;7.05;;
8564;SDS011;4320;51.498;6.556;2023-06-10T05:47:56;9.27;;;6.80;;
8564;SDS011;4320;51.498;6.556;2023-06-10T05:50:23;13.75;;;6.57;;
8564;SDS011;4320;51.498;6.556;2023-06-10T05:52:49;7.68;;;6.30;;
8564;SDS011;4320;51.498;6.556;2023-06-10T05:55:15;8.07;;;6.43;;
8564;SDS011;4320;51.498;6.556;2023-06-10T05:57:43;9.38;;;6.70;;
8564;SDS011;4320;51.498;6.556;2023-06-10T06:00:09;8.05;;;6.38;;
8564;SDS011;4320;51.498;6.556;2023-06-10T06:02:35;7.57;;;6.03;;
8564;SDS011;4320;51.498;6.556;2023-06-10T06:05:01;8.25;;;6.00;;
8564;SDS011;4320;51.498;6.556;2023-06-10T06:07:26;8.38;;;6.00;;
8564;SDS011;4320;51.498;6.556;2023-06-10T06:09:52;9.15;;;5.95;;
8564;SDS011;4320;51.498;6.556;2023-06-10T06:12:17;7.40;;;5.90;;
8564;SDS011;4320;51.498;6.556;2023-06-10T06:14:43;9.93;;;5.90;;
8564;SDS011;4320;51.498;6.556;2023-06-10T06:17:09;6.78;;;5.78;;
8564;SDS011;4320;51.498;6.556;2023-06-10T06:19:35;8.25;;;5.88;;
8564;SDS011;4320;51.498;6.556;2023-06-10T06:22:01;9.35;;;5.63;;
8564;SDS011;4320;51.498;6.556;2023-06-10T06:24:26;9.32;;;5.57;;
8564;SDS011;4320;51.498;6.556;2023-06-10T06:26:54;6.80;;;5.38;;
8564;SDS011;4320;51.498;6.556;2023-06-10T06:29:20;9.13;;;5.93;;
8564;SDS011;4320;51.498;6.556;2023-06-10T06:31:46;9.50;;;5.93;;
8564;SDS011;4320;51.498;6.556;2023-06-10T06:34:11;7.95;;;5.70;;
8564;SDS011;4320;51.498;6.556;2023-06-10T06:36:37;7.43;;;5.25;;
8564;SDS011;4320;51.498;6.556;2023-06-10T06:39:02;7.78;;;5.60;;
8564;SDS011;4320;51.498;6.556;2023-06-10T06:41:28;7.35;;;5.80;;
8564;SDS011;4320;51.498;6.556;2023-06-10T06:43:54;8.02;;;5.07;;
8564;SDS011;4320;51.498;6.556;2023-06-10T06:46:20;8.38;;;5.65;;
8564;SDS011;4320;51.498;6.556;2023-06-10T06:48:47;7.93;;;5.53;;
8564;SDS011;4320;51.498;6.556;2023-06-10T06:51:13;7.55;;;5.15;;
8564;SDS011;4320;51.498;6.556;2023-06-10T06:53:38;8.23;;;5.28;;
8564;SDS011;4320;51.498;6.556;2023-06-10T06:56:09;8.25;;;5.55;;
8564;SDS011;4320;51.498;6.556;2023-06-10T06:58:38;10.07;;;5.57;;
8564;SDS011;4320;51.498;6.556;2023-06-10T07:01:04;6.30;;;5.00;;
8564;SDS011;4320;51.498;6.556;2023-06-10T07:03:30;10.38;;;5.03;;
8564;SDS011;4320;51.498;6.556;2023-06-10T07:05:57;10.25;;;4.85;;
8564;SDS011;4320;51.498;6.556;2023-06-10T07:08:22;7.07;;;5.13;;
8564;SDS011;4320;51.498;6.556;2023-06-10T07:10:48;8.48;;;5.38;;
8564;SDS011;4320;51.498;6.556;2023-06-10T07:13:14;6.70;;;4.60;;
8564;SDS011;4320;51.498;6.556;2023-06-10T07:15:40;5.93;;;4.70;;
8564;SDS011;4320;51.498;6.556;2023-06-10T07:18:05;6.50;;;4.97;;
8564;SDS011;4320;51.498;6.556;2023-06-10T07:20:31;5.57;;;4.85;;
8564;SDS011;4320;51.498;6.556;2023-06-10T07:22:56;10.35;;;4.75;;
8564;SDS011;4320;51.498;6.556;2023-06-10T07:25:22;5.28;;;4.68;;
8564;SDS011;4320;51.498;6.556;2023-06-10T07:27:48;8.23;;;4.88;;
8564;SDS011;4320;51.498;6.556;2023-06-10T07:30:14;7.40;;;4.75;;
8564;SDS011;4320;51.498;6.556;2023-06-10T07:32:39;7.13;;;4.75;;
8564;SDS011;4320;51.498;6.556;2023-06-10T07:35:07;5.72;;;4.60;;
8564;SDS011;4320;51.498;6.556;2023-06-10T07:37:35;7.95;;;4.80;;
8564;SDS011;4320;51.498;6.556;2023-06-10T07:40:01;8.30;;;4.70;;
8564;SDS011;4320;51.498;6.556;2023-06-10T07:42:27;7.75;;;4.78;;
8564;SDS011;4320;51.498;6.556;2023-06-10T07:44:52;7.32;;;4.78;;
8564;SDS011;4320;51.498;6.556;2023-06-10T07:47:18;7.32;;;5.00;;
8564;SDS011;4320;51.498;6.556;2023-06-10T07:49:44;7.05;;;5.05;;
8564;SDS011;4320;51.498;6.556;2023-06-10T07:52:09;6.22;;;5.13;;
8564;SDS011;4320;51.498;6.556;2023-06-10T07:54:35;7.15;;;5.00;;
8564;SDS011;4320;51.498;6.556;2023-06-10T07:57:00;5.95;;;4.40;;
8564;SDS011;4320;51.498;6.556;2023-06-10T07:59:26;8.32;;;4.82;;
8564;SDS011;4320;51.498;6.556;2023-06-10T08:01:52;7.80;;;4.68;;
8564;SDS011;4320;51.498;6.556;2023-06-10T08:04:18;6.72;;;4.57;;
8564;SDS011;4320;51.498;6.556;2023-06-10T08:06:43;6.70;;;4.68;;
8564;SDS011;4320;51.498;6.556;2023-06-10T08:09:09;10.05;;;4.63;;
8564;SDS011;4320;51.498;6.556;2023-06-10T08:11:35;6.88;;;4.93;;
8564;SDS011;4320;51.498;6.556;2023-06-10T08:14:00;5.32;;;4.80;;
8564;SDS011;4320;51.498;6.556;2023-06-10T08:16:26;8.27;;;4.50;;
8564;SDS011;4320;51.498;6.556;2023-06-10T08:18:52;6.18;;;4.60;;
8564;SDS011;4320;51.498;6.556;2023-06-10T08:21:18;5.65;;;4.30;;
8564;SDS011;4320;51.498;6.556;2023-06-10T08:23:44;6.20;;;4.88;;
8564;SDS011;4320;51.498;6.556;2023-06-10T08:26:10;6.35;;;4.82;;
8564;SDS011;4320;51.498;6.556;2023-06-10T08:28:35;6.15;;;4.40;;
8564;SDS011;4320;51.498;6.556;2023-06-10T08:31:01;10.50;;;4.60;;
8564;SDS011;4320;51.498;6.556;2023-06-10T08:33:26;10.45;;;4.57;;
8564;SDS011;4320;51.498;6.556;2023-06-10T08:35:52;5.10;;;4.43;;
8564;SDS011;4320;51.498;6.556;2023-06-10T08:38:18;10.60;;;4.88;;
8564;SDS011;4320;51.498;6.556;2023-06-10T08:40:43;8.27;;;4.70;;
8564;SDS011;4320;51.498;6.556;2023-06-10T08:46:06;6.90;;;4.60;;
8564;SDS011;4320;51.498;6.556;2023-06-10T08:48:34;6.90;;;4.68;;
8564;SDS011;4320;51.498;6.556;2023-06-10T08:51:03;8.23;;;4.85;;
8564;SDS011;4320;51.498;6.556;2023-06-10T08:53:31;6.50;;;4.60;;
8564;SDS011;4320;51.498;6.556;2023-06-10T08:55:58;8.75;;;4.88;;
8564;SDS011;4320;51.498;6.556;2023-06-10T08:58:27;6.00;;;4.80;;
8564;SDS011;4320;51.498;6.556;2023-06-10T09:00:54;10.02;;;5.05;;
8564;SDS011;4320;51.498;6.556;2023-06-10T09:03:20;7.53;;;4.80;;
8564;SDS011;4320;51.498;6.556;2023-06-10T09:05:46;8.48;;;4.88;;
8564;SDS011;4320;51.498;6.556;2023-06-10T09:08:13;7.35;;;5.00;;
8564;SDS011;4320;51.498;6.556;2023-06-10T09:10:41;9.30;;;5.20;;
8564;SDS011;4320;51.498;6.556;2023-06-10T09:13:06;7.68;;;5.00;;
8564;SDS011;4320;51.498;6.556;2023-06-10T09:15:32;11.65;;;5.22;;
8564;SDS011;4320;51.498;6.556;2023-06-10T09:17:58;7.80;;;5.28;;
8564;SDS011;4320;51.498;6.556;2023-06-10T09:20:24;9.00;;;4.93;;
8564;SDS011;4320;51.498;6.556;2023-06-10T09:22:50;10.63;;;4.82;;
8564;SDS011;4320;51.498;6.556;2023-06-10T09:25:16;8.02;;;4.97;;
8564;SDS011;4320;51.498;6.556;2023-06-10T09:27:49;5.53;;;4.85;;
8564;SDS011;4320;51.498;6.556;2023-06-10T09:30:31;6.60;;;4.63;;
8564;SDS011;4320;51.498;6.556;2023-06-10T09:32:59;6.22;;;4.68;;
8564;SDS011;4320;51.498;6.556;2023-06-10T09:35:27;9.50;;;5.07;;
8564;SDS011;4320;51.498;6.556;2023-06-10T09:37:58;6.47;;;4.72;;
8564;SDS011;4320;51.498;6.556;2023-06-10T09:40:25;9.80;;;5.47;;
8564;SDS011;4320;51.498;6.556;2023-06-10T09:42:55;10.27;;;5.15;;
8564;SDS011;4320;51.498;6.556;2023-06-10T09:45:22;7.47;;;4.65;;
8564;SDS011;4320;51.498;6.556;2023-06-10T09:47:52;5.88;;;4.93;;
8564;SDS011;4320;51.498;6.556;2023-06-10T09:50:18;7.80;;;4.95;;
8564;SDS011;4320;51.498;6.556;2023-06-10T09:52:45;9.25;;;5.55;;
8564;SDS011;4320;51.498;6.556;2023-06-10T09:55:11;8.93;;;4.88;;
8564;SDS011;4320;51.498;6.556;2023-06-10T09:57:37;8.75;;;4.97;;
8564;SDS011;4320;51.498;6.556;2023-06-10T10:00:07;5.40;;;4.82;;
8564;SDS011;4320;51.498;6.556;2023-06-10T10:02:50;10.63;;;5.60;;
8564;SDS011;4320;51.498;6.556;2023-06-10T10:05:19;7.55;;;5.10;;
8564;SDS011;4320;51.498;6.556;2023-06-10T10:07:46;9.45;;;5.20;;
8564;SDS011;4320;51.498;6.556;2023-06-10T10:10:13;5.35;;;4.85;;
8564;SDS011;4320;51.498;6.556;2023-06-10T10:12:40;7.00;;;4.82;;
8564;SDS011;4320;51.498;6.556;2023-06-10T10:15:10;7.95;;;5.05;;
8564;SDS011;4320;51.498;6.556;2023-06-10T10:20:29;11.05;;;5.07;;
8564;SDS011;4320;51.498;6.556;2023-06-10T10:22:58;8.23;;;5.22;;
8564;SDS011;4320;51.498;6.556;2023-06-10T10:25:40;7.22;;;5.35;;
8564;SDS011;4320;51.498;6.556;2023-06-10T10:28:08;5.47;;;4.97;;
8564;SDS011;4320;51.498;6.556;2023-06-10T10:30:59;5.75;;;5.15;;
8564;SDS011;4320;51.498;6.556;2023-06-10T10:33:33;16.75;;;5.88;;
8564;SDS011;4320;51.498;6.556;2023-06-10T10:36:07;7.40;;;5.57;;
8564;SDS011;4320;51.498;6.556;2023-06-10T10:38:33;7.90;;;5.20;;
8564;SDS011;4320;51.498;6.556;2023-06-10T10:40:59;7.70;;;5.40;;
8564;SDS011;4320;51.498;6.556;2023-06-10T10:43:26;7.68;;;5.03;;
8564;SDS011;4320;51.498;6.556;2023-06-10T10:46:00;6.07;;;5.50;;
8564;SDS011;4320;51.498;6.556;2023-06-10T10:48:26;6.32;;;5.45;;
8564;SDS011;4320;51.498;6.556;2023-06-10T10:50:59;13.05;;;5.20;;
8564;SDS011;4320;51.498;6.556;2023-06-10T10:53:25;6.70;;;5.47;;
8564;SDS011;4320;51.498;6.556;2023-06-10T10:56:04;7.18;;;5.22;;
8564;SDS011;4320;51.498;6.556;2023-06-10T10:58:37;7.53;;;5.10;;
8564;SDS011;4320;51.498;6.556;2023-06-10T11:01:10;5.97;;;5.38;;
8564;SDS011;4320;51.498;6.556;2023-06-10T11:03:46;6.35;;;4.90;;
8564;SDS011;4320;51.498;6.556;2023-06-10T11:06:15;7.18;;;5.00;;
8564;SDS011;4320;51.498;6.556;2023-06-10T11:11:24;7.72;;;5.40;;
8564;SDS011;4320;51.498;6.556;2023-06-10T11:16:37;7.07;;;5.30;;
8564;SDS011;4320;51.498;6.556;2023-06-10T11:19:07;6.30;;;5.13;;
8564;SDS011;4320;51.498;6.556;2023-06-10T11:21:37;8.55;;;5.22;;
8564;SDS011;4320;51.498;6.556;2023-06-10T11:24:30;5.70;;;5.13;;
8564;SDS011;4320;51.498;6.556;2023-06-10T11:27:14;8.68;;;5.32;;
8564;SDS011;4320;51.498;6.556;2023-06-10T11:29:54;6.78;;;5.25;;
8564;SDS011;4320;51.498;6.556;2023-06-10T11:32:21;25.35;;;11.43;;
8564;SDS011;4320;51.498;6.556;2023-06-10T11:34:52;20.67;;;10.70;;
8564;SDS011;4320;51.498;6.556;2023-06-10T11:37:18;7.32;;;4.97;;
8564;SDS011;4320;51.498;6.556;2023-06-10T11:39:44;7.07;;;5.25;;
8564;SDS011;4320;51.498;6.556;2023-06-10T11:42:10;7.57;;;5.25;;
8564;SDS011;4320;51.498;6.556;2023-06-10T11:44:36;8.43;;;4.97;;
8564;SDS011;4320;51.498;6.556;2023-06-10T11:47:02;8.68;;;5.35;;
8564;SDS011;4320;51.498;6.556;2023-06-10T11:49:28;6.80;;;5.18;;
8564;SDS011;4320;51.498;6.556;2023-06-10T11:51:54;6.68;;;4.95;;
8564;SDS011;4320;51.498;6.556;2023-06-10T11:54:20;5.20;;;4.72;;
8564;SDS011;4320;51.498;6.556;2023-06-10T11:56:47;9.45;;;5.60;;
8564;SDS011;4320;51.498;6.556;2023-06-10T11:59:13;6.85;;;5.05;;
8564;SDS011;4320;51.498;6.556;2023-06-10T12:01:43;7.13;;;4.95;;
8564;SDS011;4320;51.498;6.556;2023-06-10T12:04:11;6.32;;;5.22;;
8564;SDS011;4320;51.498;6.556;2023-06-10T12:06:45;5.30;;;4.80;;
8564;SDS011;4320;51.498;6.556;2023-06-10T12:09:22;9.73;;;5.43;;
8564;SDS011;4320;51.498;6.556;2023-06-10T12:12:02;5.47;;;4.88;;
8564;SDS011;4320;51.498;6.556;2023-06-10T12:19:55;6.50;;;5.10;;
8564;SDS011;4320;51.498;6.556;2023-06-10T12:22:21;9.38;;;5.43;;
8564;SDS011;4320;51.498;6.556;2023-06-10T12:25:04;8.98;;;5.47;;
8564;SDS011;4320;51.498;6.556;2023-06-10T12:27:31;11.27;;;5.35;;
8564;SDS011;4320;51.498;6.556;2023-06-10T12:29:58;7.57;;;5.07;;
8564;SDS011;4320;51.498;6.556;2023-06-10T12:35:04;11.05;;;5.32;;
8564;SDS011;4320;51.498;6.556;2023-06-10T12:37:31;6.72;;;4.68;;
8564;SDS011;4320;51.498;6.556;2023-06-10T12:40:00;5.65;;;4.57;;
8564;SDS011;4320;51.498;6.556;2023-06-10T12:42:36;6.30;;;4.90;;
8564;SDS011;4320;51.498;6.556;2023-06-10T12:45:03;5.85;;;5.05;;
8564;SDS011;4320;51.498;6.556;2023-06-10T12:47:31;5.63;;;5.03;;
8564;SDS011;4320;51.498;6.556;2023-06-10T12:50:01;9.07;;;5.80;;
8564;SDS011;4320;51.498;6.556;2023-06-10T12:52:28;6.53;;;4.90;;
8564;SDS011;4320;51.498;6.556;2023-06-10T12:54:54;7.20;;;5.05;;
8564;SDS011;4320;51.498;6.556;2023-06-10T12:57:20;5.15;;;4.57;;
8564;SDS011;4320;51.498;6.556;2023-06-10T12:59:46;7.85;;;5.30;;
8564;SDS011;4320;51.498;6.556;2023-06-10T13:02:17;5.13;;;4.63;;
8564;SDS011;4320;51.498;6.556;2023-06-10T13:04:45;7.32;;;5.25;;
8564;SDS011;4320;51.498;6.556;2023-06-10T13:07:11;11.68;;;5.50;;
8564;SDS011;4320;51.498;6.556;2023-06-10T13:09:37;9.20;;;5.00;;
8564;SDS011;4320;51.498;6.556;2023-06-10T13:12:03;8.05;;;5.13;;
8564;SDS011;4320;51.498;6.556;2023-06-10T13:14:29;7.57;;;4.90;;
8564;SDS011;4320;51.498;6.556;2023-06-10T13:16:55;6.50;;;4.88;;
8564;SDS011;4320;51.498;6.556;2023-06-10T13:19:21;13.13;;;5.40;;
8564;SDS011;4320;51.498;6.556;2023-06-10T13:21:47;7.90;;;5.78;;
8564;SDS011;4320;51.498;6.556;2023-06-10T13:24:13;7.15;;;5.00;;
8564;SDS011;4320;51.498;6.556;2023-06-10T13:26:39;6.70;;;5.03;;
8564;SDS011;4320;51.498;6.556;2023-06-10T13:29:04;8.45;;;5.20;;
8564;SDS011;4320;51.498;6.556;2023-06-10T13:31:30;7.15;;;5.20;;
8564;SDS011;4320;51.498;6.556;2023-06-10T13:33:57;5.72;;;4.90;;
8564;SDS011;4320;51.498;6.556;2023-06-10T13:36:23;8.93;;;4.78;;
8564;SDS011;4320;51.498;6.556;2023-06-10T13:38:49;6.75;;;4.78;;
8564;SDS011;4320;51.498;6.556;2023-06-10T13:41:15;7.82;;;5.15;;
8564;SDS011;4320;51.498;6.556;2023-06-10T13:43:40;6.60;;;5.28;;
8564;SDS011;4320;51.498;6.556;2023-06-10T13:46:06;7.32;;;5.63;;
8564;SDS011;4320;51.498;6.556;2023-06-10T13:48:32;5.07;;;4.65;;
8564;SDS011;4320;51.498;6.556;2023-06-10T13:50:58;5.78;;;5.28;;
8564;SDS011;4320;51.498;6.556;2023-06-10T13:53:24;8.95;;;5.18;;
8564;SDS011;4320;51.498;6.556;2023-06-10T13:55:50;11.50;;;5.30;;
8564;SDS011;4320;51.498;6.556;2023-06-10T13:58:15;5.68;;;5.07;;
8564;SDS011;4320;51.498;6.556;2023-06-10T14:00:41;5.78;;;5.22;;
8564;SDS011;4320;51.498;6.556;2023-06-10T14:03:06;6.35;;;5.10;;
8564;SDS011;4320;51.498;6.556;2023-06-10T14:05:32;6.95;;;5.03;;
8564;SDS011;4320;51.498;6.556;2023-06-10T14:07:58;6.07;;;5.15;;
8564;SDS011;4320;51.498;6.556;2023-06-10T14:10:24;6.22;;;5.63;;
8564;SDS011;4320;51.498;6.556;2023-06-10T14:12:49;6.40;;;4.78;;
8564;SDS011;4320;51.498;6.556;2023-06-10T14:15:16;7.18;;;5.25;;
8564;SDS011;4320;51.498;6.556;2023-06-10T14:17:42;7.90;;;5.40;;
8564;SDS011;4320;51.498;6.556;2023-06-10T14:20:07;5.75;;;5.25;;
8564;SDS011;4320;51.498;6.556;2023-06-10T14:22:33;8.32;;;5.50;;
8564;SDS011;4320;51.498;6.556;2023-06-10T14:24:59;6.20;;;5.07;;
8564;SDS011;4320;51.498;6.556;2023-06-10T14:27:24;7.80;;;5.43;;
8564;SDS011;4320;51.498;6.556;2023-06-10T14:29:50;6.75;;;5.30;;
8564;SDS011;4320;51.498;6.556;2023-06-10T14:32:16;8.13;;;5.20;;
8564;SDS011;4320;51.498;6.556;2023-06-10T14:34:41;5.35;;;4.57;;
8564;SDS011;4320;51.498;6.556;2023-06-10T14:37:09;5.68;;;4.57;;
8564;SDS011;4320;51.498;6.556;2023-06-10T14:39:35;5.13;;;4.63;;
8564;SDS011;4320;51.498;6.556;2023-06-10T14:42:01;5.57;;;5.00;;
8564;SDS011;4320;51.498;6.556;2023-06-10T14:44:26;7.00;;;4.78;;
8564;SDS011;4320;51.498;6.556;2023-06-10T14:46:52;10.45;;;5.28;;
8564;SDS011;4320;51.498;6.556;2023-06-10T14:49:18;9.82;;;5.43;;
8564;SDS011;4320;51.498;6.556;2023-06-10T14:51:43;7.13;;;5.40;;
8564;SDS011;4320;51.498;6.556;2023-06-10T14:54:09;6.45;;;5.47;;
8564;SDS011;4320;51.498;6.556;2023-06-10T14:56:35;5.95;;;4.90;;
8564;SDS011;4320;51.498;6.556;2023-06-10T14:59:01;6.20;;;5.00;;
8564;SDS011;4320;51.498;6.556;2023-06-10T15:01:26;10.00;;;5.32;;
8564;SDS011;4320;51.498;6.556;2023-06-10T15:03:52;8.02;;;5.15;;
8564;SDS011;4320;51.498;6.556;2023-06-10T15:06:17;6.65;;;4.90;;
8564;SDS011;4320;51.498;6.556;2023-06-10T15:08:46;7.78;;;4.95;;
8564;SDS011;4320;51.498;6.556;2023-06-10T15:11:13;9.73;;;5.35;;
8564;SDS011;4320;51.498;6.556;2023-06-10T15:13:39;5.65;;;5.07;;
8564;SDS011;4320;51.498;6.556;2023-06-10T15:16:05;5.63;;;4.75;;
8564;SDS011;4320;51.498;6.556;2023-06-10T15:18:31;6.30;;;4.85;;
8564;SDS011;4320;51.498;6.556;2023-06-10T15:20:57;7.88;;;5.30;;
8564;SDS011;4320;51.498;6.556;2023-06-10T15:23:22;6.47;;;5.22;;
8564;SDS011;4320;51.498;6.556;2023-06-10T15:25:48;7.95;;;5.15;;
8564;SDS011;4320;51.498;6.556;2023-06-10T15:28:14;6.03;;;5.15;;
8564;SDS011;4320;51.498;6.556;2023-06-10T15:30:39;10.82;;;5.13;;
8564;SDS011;4320;51.498;6.556;2023-06-10T15:33:05;7.90;;;5.10;;